createdAt,value
2017-06-09T00:00:25.421Z,1001.43
2017-06-09T00:01:05.918Z,1001.43
2017-06-09T00:01:46.414Z,1001.43
2017-06-09T00:02:26.896Z,1001.43
2017-06-09T00:03:07.397Z,1001.46
2017-06-09T00:03:47.888Z,1001.46
2017-06-09T00:04:28.381Z,1001.48
2017-06-09T00:05:08.875Z,1001.48
2017-06-09T00:05:49.367Z,1001.51
2017-06-09T00:06:29.850Z,1001.5
2017-06-09T00:07:10.352Z,1001.48
2017-06-09T00:07:50.849Z,1001.44
2017-06-09T00:08:31.334Z,1001.47
2017-06-09T00:09:11.809Z,1001.48
2017-06-09T00:09:52.323Z,1001.48
2017-06-09T00:10:32.808Z,1001.49
2017-06-09T00:11:13.300Z,1001.51
2017-06-09T00:11:53.779Z,1001.49
2017-06-09T00:12:34.354Z,1001.5
2017-06-09T00:13:14.730Z,1001.49
2017-06-09T00:13:55.260Z,1001.45
2017-06-09T00:14:35.725Z,1001.49
2017-06-09T00:15:16.204Z,1001.49
2017-06-09T00:15:56.698Z,1001.48
2017-06-09T00:16:37.194Z,1001.51
2017-06-09T00:17:17.682Z,1001.52
2017-06-09T00:17:58.152Z,1001.51
2017-06-09T00:18:38.637Z,1001.49
2017-06-09T00:19:19.113Z,1001.49
2017-06-09T00:19:59.617Z,1001.5
2017-06-09T00:20:40.116Z,1001.44
2017-06-09T00:21:20.601Z,1001.47
2017-06-09T00:22:01.092Z,1001.44
2017-06-09T00:22:41.584Z,1001.42
2017-06-09T00:23:22.078Z,1001.41
2017-06-09T00:24:02.573Z,1001.39
2017-06-09T00:24:43.064Z,1001.4
2017-06-09T00:25:23.557Z,1001.39
2017-06-09T00:26:04.094Z,1001.38
2017-06-09T00:26:44.544Z,1001.35
2017-06-09T00:27:25.018Z,1001.37
2017-06-09T00:28:05.517Z,1001.35
2017-06-09T00:28:46.003Z,1001.38
2017-06-09T00:29:26.498Z,1001.4
2017-06-09T00:30:06.994Z,1001.41
2017-06-09T00:30:47.469Z,1001.45
2017-06-09T00:31:27.963Z,1001.46
2017-06-09T00:32:08.460Z,1001.48
2017-06-09T00:32:48.943Z,1001.47
2017-06-09T00:33:29.465Z,1001.45
2017-06-09T00:34:09.906Z,1001.46
2017-06-09T00:34:50.406Z,1001.45
2017-06-09T00:35:30.888Z,1001.42
2017-06-09T00:36:11.389Z,1001.38
2017-06-09T00:36:51.876Z,1001.37
2017-06-09T00:37:32.382Z,1001.4
2017-06-09T00:38:12.867Z,1001.34
2017-06-09T00:38:53.356Z,1001.31
2017-06-09T00:39:33.842Z,1001.31
2017-06-09T00:40:14.348Z,1001.28
2017-06-09T00:40:54.835Z,1001.28
2017-06-09T00:41:35.320Z,1001.3
2017-06-09T00:42:15.810Z,1001.31
2017-06-09T00:42:56.285Z,1001.28
2017-06-09T00:43:36.778Z,1001.3
2017-06-09T00:44:17.251Z,1001.32
2017-06-09T00:44:57.744Z,1001.29
2017-06-09T00:45:38.244Z,1001.28
2017-06-09T00:46:18.734Z,1001.25
2017-06-09T00:46:59.223Z,1001.26
2017-06-09T00:47:39.727Z,1001.24
2017-06-09T00:48:20.231Z,1001.21
2017-06-09T00:49:00.700Z,1001.25
2017-06-09T00:49:41.211Z,1001.26
2017-06-09T00:50:21.674Z,1001.25
2017-06-09T00:51:02.149Z,1001.29
2017-06-09T00:51:42.650Z,1001.25
2017-06-09T00:52:24.023Z,1001.3
2017-06-09T00:53:04.522Z,1001.26
2017-06-09T00:53:45.042Z,1001.27
2017-06-09T00:54:25.472Z,1001.25
2017-06-09T00:55:05.969Z,1001.25
2017-06-09T00:55:46.460Z,1001.22
2017-06-09T00:56:26.934Z,1001.22
2017-06-09T00:57:07.439Z,1001.24
2017-06-09T00:57:47.928Z,1001.24
2017-06-09T00:58:28.422Z,1001.23
2017-06-09T00:59:08.917Z,1001.21
2017-06-09T00:59:49.397Z,1001.23
2017-06-09T01:00:29.889Z,1001.21
2017-06-09T01:01:10.386Z,1001.24
2017-06-09T01:01:50.886Z,1001.23
2017-06-09T01:02:31.362Z,1001.25
2017-06-09T01:03:11.846Z,1001.26
2017-06-09T01:03:52.311Z,1001.23
2017-06-09T01:04:32.819Z,1001.24
2017-06-09T01:05:13.300Z,1001.22
2017-06-09T01:05:53.774Z,1001.22
2017-06-09T01:06:34.254Z,1001.23
2017-06-09T01:07:14.756Z,1001.24
2017-06-09T01:07:55.234Z,1001.24
2017-06-09T01:08:35.710Z,1001.24
2017-06-09T01:09:16.199Z,1001.25
2017-06-09T01:09:56.696Z,1001.24
2017-06-09T01:10:37.183Z,1001.19
2017-06-09T01:11:17.680Z,1001.23
2017-06-09T01:11:58.179Z,1001.22
2017-06-09T01:12:38.660Z,1001.23
2017-06-09T01:13:19.159Z,1001.26
2017-06-09T01:13:59.646Z,1001.23
2017-06-09T01:15:57.256Z,1001.2
2017-06-09T01:16:37.764Z,1001.18
2017-06-09T01:17:18.239Z,1001.18
2017-06-09T01:17:58.717Z,1001.2
2017-06-09T01:18:39.190Z,1001.23
2017-06-09T01:19:19.726Z,1001.13
2017-06-09T01:20:00.154Z,1001.14
2017-06-09T01:20:40.643Z,1001.18
2017-06-09T01:21:21.131Z,1001.15
2017-06-09T01:22:01.608Z,1001.13
2017-06-09T01:22:42.099Z,1001.13
2017-06-09T01:23:22.589Z,1001.1
2017-06-09T01:24:03.075Z,1001.11
2017-06-09T01:24:43.562Z,1001.13
2017-06-09T01:25:24.056Z,1001.11
2017-06-09T01:26:04.534Z,1001.11
2017-06-09T01:26:45.065Z,1001.11
2017-06-09T01:27:25.533Z,1001.11
2017-06-09T01:28:06.004Z,1001.11
2017-06-09T01:28:46.491Z,1001.09
2017-06-09T01:29:26.980Z,1001.07
2017-06-09T01:30:07.480Z,1001.07
2017-06-09T01:30:47.960Z,1001.04
2017-06-09T01:31:28.458Z,1001.03
2017-06-09T01:32:08.948Z,1001.04
2017-06-09T01:32:49.453Z,1001.03
2017-06-09T01:33:29.931Z,1001.02
2017-06-09T01:34:10.483Z,1000.99
2017-06-09T01:34:50.915Z,1001
2017-06-09T01:35:31.390Z,1000.99
2017-06-09T01:36:11.906Z,1000.99
2017-06-09T01:36:52.391Z,1001
2017-06-09T01:37:32.898Z,1001.01
2017-06-09T01:38:13.383Z,1001.01
2017-06-09T01:38:53.882Z,1001
2017-06-09T01:39:34.353Z,1001.01
2017-06-09T01:40:14.832Z,1000.97
2017-06-09T01:40:55.318Z,1000.95
2017-06-09T01:41:35.816Z,1001.03
2017-06-09T01:42:16.304Z,1000.99
2017-06-09T01:42:56.794Z,1001
2017-06-09T01:43:37.265Z,1001.02
2017-06-09T01:44:17.752Z,1000.98
2017-06-09T01:44:58.246Z,1000.95
2017-06-09T01:45:38.736Z,1000.96
2017-06-09T01:46:19.219Z,1000.94
2017-06-09T01:46:59.709Z,1000.91
2017-06-09T01:47:40.205Z,1000.9
2017-06-09T01:48:20.684Z,1000.9
2017-06-09T01:49:01.234Z,1000.86
2017-06-09T01:49:41.648Z,1000.89
2017-06-09T01:50:22.123Z,1000.86
2017-06-09T01:51:02.613Z,1000.82
2017-06-09T01:51:43.080Z,1000.83
2017-06-09T01:52:23.576Z,1000.81
2017-06-09T01:53:04.072Z,1000.81
2017-06-09T01:53:44.583Z,1000.74
2017-06-09T01:54:25.067Z,1000.71
2017-06-09T01:55:05.563Z,1000.67
2017-06-09T01:55:46.055Z,1000.63
2017-06-09T01:56:26.543Z,1000.63
2017-06-09T01:57:07.032Z,1000.62
2017-06-09T01:57:47.542Z,1000.59
2017-06-09T01:58:28.018Z,1000.57
2017-06-09T01:59:08.519Z,1000.54
2017-06-09T01:59:49.010Z,1000.54
2017-06-09T02:00:29.491Z,1000.5
2017-06-09T02:01:09.985Z,1000.53
2017-06-09T02:01:50.475Z,1000.5
2017-06-09T02:02:30.972Z,1000.48
2017-06-09T02:03:11.461Z,1000.47
2017-06-09T02:03:51.943Z,1000.42
2017-06-09T02:04:32.446Z,1000.43
2017-06-09T02:05:13.019Z,1000.39
2017-06-09T02:05:53.438Z,1000.41
2017-06-09T02:06:33.924Z,1000.4
2017-06-09T02:07:14.413Z,1000.34
2017-06-09T02:07:54.907Z,1000.35
2017-06-09T02:08:35.405Z,1000.31
2017-06-09T02:09:15.915Z,1000.34
2017-06-09T02:09:57.274Z,1000.3
2017-06-09T02:10:37.781Z,1000.31
2017-06-09T02:11:18.261Z,1000.32
2017-06-09T02:11:58.771Z,1000.31
2017-06-09T02:12:39.238Z,1000.34
2017-06-09T02:13:19.734Z,1000.33
2017-06-09T02:14:00.224Z,1000.33
2017-06-09T02:14:40.712Z,1000.33
2017-06-09T02:15:21.216Z,1000.33
2017-06-09T02:16:01.704Z,1000.32
2017-06-09T02:16:42.221Z,1000.33
2017-06-09T02:17:23.256Z,1000.27
2017-06-09T02:18:03.740Z,1000.28
2017-06-09T02:18:44.221Z,1000.3
2017-06-09T02:19:24.731Z,1000.24
2017-06-09T02:20:05.193Z,1000.23
2017-06-09T02:20:45.670Z,1000.24
2017-06-09T02:22:38.277Z,1000.22
2017-06-09T02:23:18.744Z,1000.2
2017-06-09T02:23:59.222Z,1000.21
2017-06-09T02:24:39.686Z,1000.17
2017-06-09T02:25:20.158Z,1000.22
2017-06-09T02:26:01.513Z,1000.21
2017-06-09T02:26:41.989Z,1000.22
2017-06-09T02:27:22.447Z,1000.19
2017-06-09T02:28:02.897Z,1000.19
2017-06-09T02:28:43.332Z,1000.2
2017-06-09T02:29:23.769Z,1000.2
2017-06-09T02:30:04.263Z,1000.2
2017-06-09T02:30:44.712Z,1000.2
2017-06-09T02:31:25.180Z,1000.19
2017-06-09T02:32:05.645Z,1000.21
2017-06-09T02:32:46.095Z,1000.23
2017-06-09T02:33:26.537Z,1000.25
2017-06-09T02:34:07.007Z,1000.24
2017-06-09T02:34:47.457Z,1000.22
2017-06-09T02:35:27.927Z,1000.22
2017-06-09T02:36:08.397Z,1000.24
2017-06-09T02:36:48.880Z,1000.23
2017-06-09T02:37:30.207Z,1000.22
2017-06-09T02:38:10.679Z,1000.2
2017-06-09T02:38:51.149Z,1000.2
2017-06-09T02:39:31.636Z,1000.2
2017-06-09T02:40:12.077Z,1000.21
2017-06-09T02:40:52.525Z,1000.21
2017-06-09T02:41:32.988Z,1000.22
2017-06-09T02:42:13.454Z,1000.22
2017-06-09T02:42:53.925Z,1000.18
2017-06-09T02:43:34.387Z,1000.16
2017-06-09T02:45:47.116Z,1000.06
2017-06-09T02:46:27.594Z,1000.06
2017-06-09T02:47:08.073Z,1000.01
2017-06-09T02:47:48.538Z,1000
2017-06-09T02:48:29.027Z,999.96
2017-06-09T02:49:09.500Z,1000
2017-06-09T02:49:49.985Z,999.96
2017-06-09T02:50:30.471Z,999.99
2017-06-09T02:51:10.963Z,999.94
2017-06-09T02:51:51.458Z,999.94
2017-06-09T02:52:31.954Z,999.9
2017-06-09T02:53:12.439Z,999.92
2017-06-09T02:53:52.916Z,999.89
2017-06-09T02:54:33.456Z,999.88
2017-06-09T02:55:13.925Z,999.89
2017-06-09T02:55:54.448Z,999.85
2017-06-09T02:56:34.910Z,999.85
2017-06-09T02:57:15.395Z,999.81
2017-06-09T02:57:55.874Z,999.83
2017-06-09T02:58:36.369Z,999.78
2017-06-09T02:59:16.883Z,999.78
2017-06-09T02:59:57.356Z,999.8
2017-06-09T03:00:37.864Z,999.78
2017-06-09T03:01:18.360Z,999.79
2017-06-09T03:01:58.853Z,999.84
2017-06-09T03:02:39.382Z,999.87
2017-06-09T03:03:19.857Z,999.85
2017-06-09T03:04:00.359Z,999.87
2017-06-09T03:04:40.845Z,999.87
2017-06-09T03:05:21.326Z,999.85
2017-06-09T03:06:01.833Z,999.87
2017-06-09T03:06:42.319Z,999.9
2017-06-09T03:07:22.813Z,999.85
2017-06-09T03:08:03.360Z,999.85
2017-06-09T03:08:43.795Z,999.85
2017-06-09T03:09:24.290Z,999.87
2017-06-09T03:10:04.776Z,999.85
2017-06-09T03:10:45.277Z,999.86
2017-06-09T03:11:25.767Z,999.86
2017-06-09T03:12:06.264Z,999.88
2017-06-09T03:12:46.749Z,999.91
2017-06-09T03:13:27.268Z,999.89
2017-06-09T03:14:07.744Z,999.88
2017-06-09T03:14:48.258Z,999.92
2017-06-09T03:15:28.711Z,999.96
2017-06-09T03:16:09.203Z,999.97
2017-06-09T03:16:49.678Z,999.96
2017-06-09T03:17:30.163Z,999.96
2017-06-09T03:18:10.652Z,999.97
2017-06-09T03:18:51.153Z,999.99
2017-06-09T03:19:31.642Z,1000
2017-06-09T03:20:12.119Z,1000.03
2017-06-09T03:20:52.609Z,1000
2017-06-09T03:21:33.116Z,1000.01
2017-06-09T03:22:13.620Z,1000.01
2017-06-09T03:22:54.154Z,1000.03
2017-06-09T03:23:34.593Z,1000.03
2017-06-09T03:24:15.074Z,1000.01
2017-06-09T03:24:55.554Z,1000.01
2017-06-09T03:25:36.062Z,1000.03
2017-06-09T03:26:16.548Z,1000
2017-06-09T03:26:57.034Z,1000.04
2017-06-09T03:27:37.524Z,1000.01
2017-06-09T03:28:18.011Z,1000.01
2017-06-09T03:28:58.500Z,1000.05
2017-06-09T03:29:39.000Z,1000.07
2017-06-09T03:30:19.472Z,1000.03
2017-06-09T03:30:59.961Z,1000.07
2017-06-09T03:31:40.466Z,1000.07
2017-06-09T03:32:20.960Z,1000.09
2017-06-09T03:33:01.442Z,1000.13
2017-06-09T03:33:41.947Z,1000.08
2017-06-09T03:34:22.438Z,1000.12
2017-06-09T03:35:02.931Z,1000.06
2017-06-09T03:35:43.426Z,1000.08
2017-06-09T03:36:23.916Z,1000.07
2017-06-09T03:37:04.397Z,1000.12
2017-06-09T03:37:44.964Z,1000.09
2017-06-09T03:38:25.395Z,1000.13
2017-06-09T03:39:05.872Z,1000.12
2017-06-09T03:39:46.346Z,1000.16
2017-06-09T03:40:26.841Z,1000.16
2017-06-09T03:41:07.328Z,1000.19
2017-06-09T03:41:47.823Z,1000.24
2017-06-09T03:42:28.303Z,1000.21
2017-06-09T03:43:08.804Z,1000.23
2017-06-09T03:43:49.306Z,1000.25
2017-06-09T03:44:29.810Z,1000.22
2017-06-09T03:45:10.296Z,1000.24
2017-06-09T03:45:50.767Z,1000.23
2017-06-09T03:46:31.250Z,1000.23
2017-06-09T03:47:11.774Z,1000.22
2017-06-09T03:47:52.262Z,1000.22
2017-06-09T03:48:32.749Z,1000.22
2017-06-09T03:49:13.239Z,1000.21
2017-06-09T03:49:54.617Z,1000.2
2017-06-09T03:50:35.106Z,1000.24
2017-06-09T03:51:15.605Z,1000.22
2017-06-09T03:51:56.102Z,1000.22
2017-06-09T03:52:36.588Z,1000.22
2017-06-09T03:53:17.084Z,1000.22
2017-06-09T03:53:57.574Z,1000.26
2017-06-09T03:54:38.066Z,1000.27
2017-06-09T03:55:18.584Z,1000.26
2017-06-09T03:55:59.040Z,1000.31
2017-06-09T03:56:39.530Z,1000.28
2017-06-09T03:57:20.035Z,1000.31
2017-06-09T03:58:00.517Z,1000.28
2017-06-09T03:58:41.010Z,1000.28
2017-06-09T03:59:21.491Z,1000.27
2017-06-09T04:00:01.980Z,1000.31
2017-06-09T04:00:42.473Z,1000.28
2017-06-09T04:01:22.947Z,1000.27
2017-06-09T04:02:03.443Z,1000.33
2017-06-09T04:02:43.939Z,1000.34
2017-06-09T04:03:24.423Z,1000.36
2017-06-09T04:04:04.916Z,1000.35
2017-06-09T04:04:45.408Z,1000.37
2017-06-09T04:05:25.883Z,1000.38
2017-06-09T04:06:06.375Z,1000.42
2017-06-09T04:06:46.877Z,1000.38
2017-06-09T04:07:27.341Z,1000.33
2017-06-09T04:08:07.869Z,1000.34
2017-06-09T04:08:48.328Z,1000.33
2017-06-09T04:09:28.819Z,1000.33
2017-06-09T04:10:09.309Z,1000.28
2017-06-09T04:10:49.798Z,1000.31
2017-06-09T04:11:30.315Z,1000.3
2017-06-09T04:12:10.788Z,1000.3
2017-06-09T04:12:51.269Z,1000.29
2017-06-09T04:13:31.747Z,1000.32
2017-06-09T04:14:12.288Z,1000.32
2017-06-09T04:14:52.741Z,1000.33
2017-06-09T04:15:33.223Z,1000.32
2017-06-09T04:16:13.719Z,1000.31
2017-06-09T04:16:54.220Z,1000.31
2017-06-09T04:17:34.736Z,1000.29
2017-06-09T04:18:15.160Z,1000.33
2017-06-09T04:18:55.662Z,1000.3
2017-06-09T04:19:36.126Z,1000.32
2017-06-09T04:22:04.029Z,1000.28
2017-06-09T04:22:44.500Z,1000.26
2017-06-09T04:23:24.991Z,1000.25
2017-06-09T04:24:05.495Z,1000.27
2017-06-09T04:24:45.979Z,1000.27
2017-06-09T04:25:26.467Z,1000.28
2017-06-09T04:26:06.959Z,1000.3
2017-06-09T04:26:47.452Z,1000.33
2017-06-09T04:27:27.943Z,1000.32
2017-06-09T04:28:08.454Z,1000.32
2017-06-09T04:28:48.928Z,1000.33
2017-06-09T04:29:29.392Z,1000.36
2017-06-09T04:30:09.889Z,1000.37
2017-06-09T04:30:50.402Z,1000.41
2017-06-09T04:31:30.886Z,1000.41
2017-06-09T04:32:11.362Z,1000.39
2017-06-09T04:32:51.860Z,1000.41
2017-06-09T04:33:32.343Z,1000.41
2017-06-09T04:34:12.820Z,1000.41
2017-06-09T04:34:53.301Z,1000.4
2017-06-09T04:35:33.799Z,1000.47
2017-06-09T04:36:14.283Z,1000.47
2017-06-09T04:36:54.786Z,1000.44
2017-06-09T04:37:35.274Z,1000.43
2017-06-09T04:38:15.740Z,1000.45
2017-06-09T04:38:56.224Z,1000.47
2017-06-09T04:39:36.758Z,1000.45
2017-06-09T04:40:17.212Z,1000.48
2017-06-09T04:40:57.681Z,1000.51
2017-06-09T04:41:38.171Z,1000.5
2017-06-09T04:42:18.653Z,1000.52
2017-06-09T04:42:59.147Z,1000.54
2017-06-09T04:43:39.634Z,1000.54
2017-06-09T04:44:20.137Z,1000.54
2017-06-09T04:45:00.600Z,1000.51
2017-06-09T04:45:41.081Z,1000.53
2017-06-09T04:46:21.565Z,1000.47
2017-06-09T04:47:02.062Z,1000.54
2017-06-09T04:47:42.561Z,1000.44
2017-06-09T04:48:23.052Z,1000.44
2017-06-09T04:49:03.561Z,1000.45
2017-06-09T04:49:44.057Z,1000.42
2017-06-09T04:50:24.586Z,1000.37
2017-06-09T04:51:05.055Z,1000.4
2017-06-09T04:51:45.561Z,1000.37
2017-06-09T04:52:26.047Z,1000.38
2017-06-09T04:53:06.535Z,1000.34
2017-06-09T04:53:47.776Z,1000.34
2017-06-09T04:54:28.210Z,1000.34
2017-06-09T04:55:08.739Z,1000.3
2017-06-09T04:55:49.174Z,1000.35
2017-06-09T04:56:29.666Z,1000.35
2017-06-09T04:57:10.187Z,1000.35
2017-06-09T04:57:50.661Z,1000.35
2017-06-09T04:58:31.140Z,1000.36
2017-06-09T04:59:11.636Z,1000.34
2017-06-09T04:59:52.135Z,1000.34
2017-06-09T05:00:32.622Z,1000.39
2017-06-09T05:01:13.188Z,1000.43
2017-06-09T05:01:53.650Z,1000.44
2017-06-09T05:02:34.171Z,1000.48
2017-06-09T05:03:14.636Z,1000.48
2017-06-09T05:03:55.149Z,1000.52
2017-06-09T05:04:35.595Z,1000.53
2017-06-09T05:05:16.082Z,1000.55
2017-06-09T05:05:56.562Z,1000.58
2017-06-09T05:06:37.052Z,1000.6
2017-06-09T05:07:17.540Z,1000.63
2017-06-09T05:07:58.021Z,1000.66
2017-06-09T05:08:38.520Z,1000.71
2017-06-09T05:09:19.031Z,1000.74
2017-06-09T05:09:59.546Z,1000.7
2017-06-09T05:10:40.005Z,1000.71
2017-06-09T05:11:20.520Z,1000.73
2017-06-09T05:12:01.060Z,1000.76
2017-06-09T05:12:41.507Z,1000.76
2017-06-09T05:13:22.003Z,1000.76
2017-06-09T05:14:02.490Z,1000.78
2017-06-09T05:14:42.986Z,1000.79
2017-06-09T05:15:23.455Z,1000.79
2017-06-09T05:16:03.977Z,1000.75
2017-06-09T05:16:44.486Z,1000.81
2017-06-09T05:18:57.200Z,1000.8
2017-06-09T05:19:37.690Z,1000.81
2017-06-09T05:20:18.180Z,1000.78
2017-06-09T05:20:58.662Z,1000.75
2017-06-09T05:21:39.163Z,1000.74
2017-06-09T05:22:19.673Z,1000.75
2017-06-09T05:23:00.166Z,1000.73
2017-06-09T05:23:40.654Z,1000.75
2017-06-09T05:24:21.145Z,1000.73
2017-06-09T05:25:01.627Z,1000.71
2017-06-09T05:25:42.124Z,1000.76
2017-06-09T05:26:22.647Z,1000.75
2017-06-09T05:27:03.097Z,1000.74
2017-06-09T05:27:43.619Z,1000.74
2017-06-09T05:28:24.140Z,1000.74
2017-06-09T05:29:04.661Z,1000.72
2017-06-09T05:29:45.158Z,1000.72
2017-06-09T05:30:25.672Z,1000.75
2017-06-09T05:31:06.158Z,1000.74
2017-06-09T05:31:46.653Z,1000.69
2017-06-09T05:32:27.147Z,1000.71
2017-06-09T05:33:07.627Z,1000.74
2017-06-09T05:33:48.104Z,1000.8
2017-06-09T05:34:28.589Z,1000.81
2017-06-09T05:35:09.086Z,1000.81
2017-06-09T05:35:49.583Z,1000.8
2017-06-09T05:36:30.097Z,1000.81
2017-06-09T05:37:10.605Z,1000.81
2017-06-09T05:37:51.069Z,1000.84
2017-06-09T05:38:31.575Z,1000.79
2017-06-09T05:39:12.068Z,1000.85
2017-06-09T05:39:52.568Z,1000.84
2017-06-09T05:42:20.559Z,1000.85
2017-06-09T05:43:01.021Z,1000.88
2017-06-09T05:43:41.476Z,1000.89
2017-06-09T05:44:21.902Z,1000.89
2017-06-09T05:45:02.376Z,1000.88
2017-06-09T05:45:42.816Z,1000.89
2017-06-09T05:46:23.283Z,1000.87
2017-06-09T05:47:03.757Z,1000.9
2017-06-09T05:47:44.215Z,1000.91
2017-06-09T05:48:24.657Z,1000.91
2017-06-09T05:50:37.393Z,1000.86
2017-06-09T05:51:17.878Z,1000.85
2017-06-09T05:51:58.334Z,1000.88
2017-06-09T05:52:38.803Z,1000.85
2017-06-09T05:53:19.284Z,1000.9
2017-06-09T05:53:59.750Z,1000.88
2017-06-09T05:54:40.185Z,1000.87
2017-06-09T05:55:20.668Z,1000.87
2017-06-09T05:56:01.091Z,1000.89
2017-06-09T05:56:41.525Z,1000.89
2017-06-09T05:57:22.976Z,1000.94
2017-06-09T05:58:09.159Z,1000.95
2017-06-09T05:58:49.618Z,1000.93
2017-06-09T05:59:30.039Z,1000.85
2017-06-09T06:00:10.476Z,1000.85
2017-06-09T06:00:51.677Z,1000.82
2017-06-09T06:01:32.083Z,1000.85
2017-06-09T06:02:12.543Z,1000.85
2017-06-09T06:02:52.978Z,1000.81
2017-06-09T06:05:20.951Z,1000.76
2017-06-09T06:06:01.428Z,1000.74
2017-06-09T06:06:41.935Z,1000.76
2017-06-09T06:07:22.479Z,1000.77
2017-06-09T06:08:02.988Z,1000.84
2017-06-09T06:08:43.466Z,1000.9
2017-06-09T06:09:23.952Z,1000.91
2017-06-09T06:10:04.445Z,1000.94
2017-06-09T06:10:44.968Z,1000.88
2017-06-09T06:11:25.472Z,1000.88
2017-06-09T06:12:05.936Z,1000.92
2017-06-09T06:12:46.425Z,1000.98
2017-06-09T06:13:26.915Z,1001.01
2017-06-09T06:14:07.419Z,1001.03
2017-06-09T06:14:47.923Z,1001
2017-06-09T06:15:28.412Z,1000.99
2017-06-09T06:16:08.904Z,1001.04
2017-06-09T06:16:49.422Z,1001.03
2017-06-09T06:17:29.973Z,1001.06
2017-06-09T06:18:10.464Z,1001.07
2017-06-09T06:18:50.934Z,1001.1
2017-06-09T06:19:31.437Z,1001.12
2017-06-09T06:20:11.921Z,1001.12
2017-06-09T06:20:52.405Z,1001.11
2017-06-09T06:21:32.926Z,1001.13
2017-06-09T06:22:13.473Z,1001.12
2017-06-09T06:22:54.512Z,1001.13
2017-06-09T06:23:35.019Z,1001.1
2017-06-09T06:24:15.512Z,1001.11
2017-06-09T06:24:55.976Z,1001.16
2017-06-09T06:25:36.483Z,1001.15
2017-06-09T06:26:17.013Z,1001.17
2017-06-09T06:26:57.461Z,1001.2
2017-06-09T06:27:37.960Z,1001.23
2017-06-09T06:28:18.474Z,1001.21
2017-06-09T06:28:58.999Z,1001.24
2017-06-09T06:29:39.488Z,1001.23
2017-06-09T06:30:19.994Z,1001.2
2017-06-09T06:31:01.136Z,1001.19
2017-06-09T06:31:41.645Z,1001.19
2017-06-09T06:32:22.133Z,1001.15
2017-06-09T06:33:02.640Z,1001.19
2017-06-09T06:33:43.123Z,1001.19
2017-06-09T06:34:23.619Z,1001.2
2017-06-09T06:35:04.128Z,1001.14
2017-06-09T06:35:44.618Z,1001.11
2017-06-09T06:37:57.417Z,1000.99
2017-06-09T06:38:37.877Z,1000.97
2017-06-09T06:39:18.354Z,1000.99
2017-06-09T06:39:58.919Z,1000.96
2017-06-09T06:40:39.334Z,1000.99
2017-06-09T06:41:19.827Z,1000.99
2017-06-09T06:42:00.298Z,1001.04
2017-06-09T06:42:40.795Z,1001.05
2017-06-09T06:43:21.917Z,1001.06
2017-06-09T06:44:02.919Z,1001.09
2017-06-09T06:44:43.398Z,1001.12
2017-06-09T06:45:23.910Z,1001.13
2017-06-09T06:46:04.394Z,1001.14
2017-06-09T06:46:44.920Z,1001.13
2017-06-09T06:47:25.399Z,1001.15
2017-06-09T06:48:06.110Z,1001.15
2017-06-09T06:48:46.354Z,1001.13
2017-06-09T06:49:26.809Z,1001.11
2017-06-09T06:50:07.283Z,1001.13
2017-06-09T06:50:47.761Z,1001.07
2017-06-09T06:53:05.600Z,1001.18
2017-06-09T06:53:46.082Z,1001.21
2017-06-09T06:54:26.552Z,1001.22
2017-06-09T06:55:07.023Z,1001.26
2017-06-09T06:55:47.537Z,1001.25
2017-06-09T06:56:28.040Z,1001.24
2017-06-09T06:57:08.531Z,1001.2
2017-06-09T06:57:49.045Z,1001.21
2017-06-09T06:58:29.545Z,1001.22
2017-06-09T06:59:10.022Z,1001.19
2017-06-09T06:59:51.438Z,1001.23
2017-06-09T07:00:31.837Z,1001.18
2017-06-09T07:01:12.322Z,1001.2
2017-06-09T07:01:52.832Z,1001.17
2017-06-09T07:02:33.338Z,1001.16
2017-06-09T07:03:13.841Z,1001.18
2017-06-09T07:03:54.345Z,1001.15
2017-06-09T07:04:34.854Z,1001.14
2017-06-09T07:05:15.333Z,1001.11
2017-06-09T07:05:55.810Z,1001.1
2017-06-09T07:06:36.314Z,1001.13
2017-06-09T07:07:16.817Z,1001.13
2017-06-09T07:07:57.314Z,1001.14
2017-06-09T07:08:37.801Z,1001.2
2017-06-09T07:09:18.310Z,1001.17
2017-06-09T07:09:58.798Z,1001.17
2017-06-09T07:10:39.303Z,1001.19
2017-06-09T07:11:19.780Z,1001.24
2017-06-09T07:12:00.270Z,1001.24
2017-06-09T07:12:40.762Z,1001.26
2017-06-09T07:13:21.261Z,1001.28
2017-06-09T07:14:01.765Z,1001.27
2017-06-09T07:14:42.259Z,1001.28
2017-06-09T07:15:22.752Z,1001.34
2017-06-09T07:16:03.247Z,1001.38
2017-06-09T07:16:43.732Z,1001.43
2017-06-09T07:17:24.214Z,1001.43
2017-06-09T07:18:04.707Z,1001.44
2017-06-09T07:18:45.218Z,1001.42
2017-06-09T07:19:26.640Z,1001.36
2017-06-09T07:21:19.266Z,1001.33
2017-06-09T07:21:59.764Z,1001.3
2017-06-09T07:22:40.218Z,1001.28
2017-06-09T07:23:20.715Z,1001.28
2017-06-09T07:24:01.329Z,1001.25
2017-06-09T07:24:42.489Z,1001.24
2017-06-09T07:25:22.967Z,1001.27
2017-06-09T07:26:03.459Z,1001.26
2017-06-09T07:26:43.950Z,1001.24
2017-06-09T07:27:24.443Z,1001.28
2017-06-09T07:28:04.978Z,1001.31
2017-06-09T07:28:45.446Z,1001.36
2017-06-09T07:29:25.952Z,1001.39
2017-06-09T07:30:06.467Z,1001.41
2017-06-09T07:30:46.931Z,1001.48
2017-06-09T07:32:44.619Z,1001.31
2017-06-09T07:33:25.171Z,1001.31
2017-06-09T07:34:05.689Z,1001.27
2017-06-09T07:34:46.206Z,1001.28
2017-06-09T07:35:26.714Z,1001.33
2017-06-09T07:36:07.206Z,1001.39
2017-06-09T07:36:47.709Z,1001.44
2017-06-09T07:37:28.210Z,1001.47
2017-06-09T07:38:08.717Z,1001.52
2017-06-09T07:38:49.177Z,1001.51
2017-06-09T07:39:30.384Z,1001.53
2017-06-09T07:40:10.859Z,1001.63
2017-06-09T07:40:51.332Z,1001.67
2017-06-09T07:41:31.813Z,1001.74
2017-06-09T07:42:12.337Z,1001.82
2017-06-09T07:42:52.828Z,1001.83
2017-06-09T07:43:33.324Z,1001.85
2017-06-09T07:44:13.829Z,1001.81
2017-06-09T07:44:54.307Z,1001.8
2017-06-09T07:45:34.809Z,1001.83
2017-06-09T07:46:15.282Z,1001.81
2017-06-09T07:46:55.765Z,1001.81
2017-06-09T07:47:36.267Z,1001.76
2017-06-09T07:48:16.713Z,1001.77
2017-06-09T07:48:57.236Z,1001.77
2017-06-09T07:49:37.720Z,1001.73
2017-06-09T07:51:55.566Z,1001.65
2017-06-09T07:52:36.018Z,1001.72
2017-06-09T07:53:16.502Z,1001.67
2017-06-09T07:53:57.009Z,1001.62
2017-06-09T07:54:37.503Z,1001.61
2017-06-09T07:55:18.027Z,1001.6
2017-06-09T07:55:58.515Z,1001.55
2017-06-09T07:56:39.035Z,1001.53
2017-06-09T07:57:19.530Z,1001.54
2017-06-09T07:58:00.013Z,1001.65
2017-06-09T07:58:41.216Z,1001.68
2017-06-09T07:59:21.685Z,1001.6
2017-06-09T08:00:02.181Z,1001.66
2017-06-09T08:00:42.652Z,1001.7
2017-06-09T08:01:23.102Z,1001.74
2017-06-09T08:03:20.761Z,1001.95
2017-06-09T08:04:01.246Z,1002.01
2017-06-09T08:06:31.407Z,1002.17
2017-06-09T08:07:11.917Z,1002.12
2017-06-09T08:07:52.432Z,1002.17
2017-06-09T08:08:32.986Z,1002.13
2017-06-09T08:09:13.480Z,1002.1
2017-06-09T08:09:53.995Z,1002.15
2017-06-09T08:10:34.519Z,1002.21
2017-06-09T08:11:15.058Z,1002.17
2017-06-09T08:11:55.595Z,1002.12
2017-06-09T08:12:36.198Z,1002.14
2017-06-09T08:13:16.780Z,1002.13
2017-06-09T08:13:57.315Z,1002.05
2017-06-09T08:14:38.790Z,1002.07
2017-06-09T08:15:19.305Z,1002.03
2017-06-09T08:15:59.789Z,1001.99
2017-06-09T08:16:40.282Z,1002
2017-06-09T08:17:20.775Z,1001.97
2017-06-09T08:18:01.257Z,1001.97
2017-06-09T08:18:41.741Z,1001.95
2017-06-09T08:19:22.254Z,1001.98
2017-06-09T08:20:02.737Z,1001.98
2017-06-09T08:20:43.237Z,1001.94
2017-06-09T08:22:35.838Z,1001.85
2017-06-09T08:23:16.401Z,1001.89
2017-06-09T08:23:56.877Z,1001.9
2017-06-09T08:24:37.372Z,1001.92
2017-06-09T08:25:17.902Z,1001.91
2017-06-09T08:25:58.453Z,1001.96
2017-06-09T08:26:38.898Z,1002.03
2017-06-09T08:27:19.432Z,1002.09
2017-06-09T08:27:59.872Z,1002.14
2017-06-09T08:28:40.351Z,1002.27
2017-06-09T08:29:21.584Z,1002.41
2017-06-09T08:30:02.069Z,1002.44
2017-06-09T08:30:42.566Z,1002.47
2017-06-09T08:31:23.069Z,1002.49
2017-06-09T08:32:03.551Z,1002.5
2017-06-09T08:33:56.128Z,1002.27
2017-06-09T08:34:36.634Z,1002.23
2017-06-09T08:35:17.124Z,1002.22
2017-06-09T08:35:57.631Z,1002.21
2017-06-09T08:36:38.108Z,1002.19
2017-06-09T08:37:18.596Z,1002.08
2017-06-09T08:37:59.081Z,1002.01
2017-06-09T08:38:39.571Z,1002.05